Time;durP1;ratioP1;P1;durP2;ratioP2;P2;SDS_P1;SDS_P2;PMS_P1;PMS_P2;Temp;Humidity;BMP_temperature;BMP_pressure;BME280_temperature;BME280_humidity;BME280_pressure;Samples;Min_cycle;Max_cycle;Signal;HPM_P1;HPM_P2
2023/01/09 00:01:00;;;;;;;34.28;24.75;;;5.80;99.90;;;;;;2075051;28;20508;-72
2023/01/09 00:02:01;;;;;;;34.78;23.95;;;5.80;99.90;;;;;;2076098;28;20056;-72
2023/01/09 00:03:01;;;;;;;38.03;25.25;;;5.80;99.90;;;;;;2076188;28;20053;-72
2023/01/09 00:04:02;;;;;;;38.30;25.38;;;5.90;99.90;;;;;;2076037;28;20026;-72
2023/01/09 00:05:03;;;;;;;36.15;25.30;;;5.90;99.90;;;;;;2073460;28;20052;-73
2023/01/09 00:06:04;;;;;;;38.00;24.92;;;5.80;99.90;;;;;;2076448;28;20051;-73
2023/01/09 00:07:05;;;;;;;36.58;25.08;;;5.80;99.90;;;;;;2078865;28;20542;-72
2023/01/09 00:08:06;;;;;;;34.75;23.45;;;5.80;99.90;;;;;;2074748;28;20040;-72
2023/01/09 00:09:07;;;;;;;41.28;26.00;;;5.80;99.90;;;;;;2075217;28;20037;-72
2023/01/09 00:10:08;;;;;;;37.13;24.85;;;5.80;99.90;;;;;;2076966;28;20060;-72
2023/01/09 00:11:09;;;;;;;38.60;25.35;;;5.90;99.90;;;;;;2076195;28;20039;-72
2023/01/09 00:12:10;;;;;;;35.45;23.75;;;5.80;99.90;;;;;;2077895;28;20033;-72
2023/01/09 00:13:13;;;;;;;38.42;25.38;;;5.90;99.90;;;;;;2082658;28;20032;-72
2023/01/09 00:14:17;;;;;;;37.63;24.92;;;5.90;99.90;;;;;;2082315;28;20079;-72
2023/01/09 00:15:18;;;;;;;35.78;24.33;;;5.90;99.90;;;;;;2066861;28;20076;-72
2023/01/09 00:16:19;;;;;;;37.55;24.23;;;5.90;99.90;;;;;;2066006;28;20267;-72
2023/01/09 00:17:19;;;;;;;35.35;24.45;;;5.80;99.90;;;;;;2080896;28;20385;-72
2023/01/09 00:18:20;;;;;;;37.35;25.33;;;5.90;99.90;;;;;;2078754;28;20032;-72
2023/01/09 00:19:20;;;;;;;36.45;24.85;;;5.90;99.90;;;;;;2079189;28;20123;-72
2023/01/09 00:20:21;;;;;;;37.65;25.38;;;5.90;99.90;;;;;;2077182;28;20024;-73
2023/01/09 00:21:22;;;;;;;35.60;23.80;;;5.90;99.90;;;;;;2070975;28;20535;-72
2023/01/09 00:22:23;;;;;;;36.17;24.02;;;5.90;99.90;;;;;;2060530;28;20044;-72
2023/01/09 00:23:23;;;;;;;35.80;24.08;;;5.90;99.90;;;;;;2060730;28;20477;-72
2023/01/09 00:24:24;;;;;;;36.15;24.33;;;5.90;99.90;;;;;;2068972;28;20309;-72
2023/01/09 00:25:24;;;;;;;36.28;23.83;;;5.90;99.90;;;;;;2085446;28;20295;-72
2023/01/09 00:26:25;;;;;;;33.25;22.90;;;5.90;99.90;;;;;;2078817;28;20021;-72
2023/01/09 00:27:25;;;;;;;37.70;24.67;;;5.90;99.90;;;;;;2079096;28;20550;-71
2023/01/09 00:28:26;;;;;;;37.70;25.10;;;5.90;99.90;;;;;;2071545;28;20026;-73
2023/01/09 00:29:26;;;;;;;38.08;25.17;;;5.90;99.90;;;;;;2078194;28;20025;-71
2023/01/09 00:30:28;;;;;;;36.22;24.02;;;5.90;99.90;;;;;;2074679;28;20034;-72
2023/01/09 00:31:28;;;;;;;39.35;25.15;;;5.90;99.90;;;;;;2071009;28;20029;-72
2023/01/09 00:32:29;;;;;;;35.50;24.02;;;5.90;99.90;;;;;;2077971;28;20412;-71
2023/01/09 00:33:33;;;;;;;36.95;24.67;;;5.90;99.90;;;;;;2077675;28;20141;-72
2023/01/09 00:34:36;;;;;;;38.25;24.85;;;5.90;99.90;;;;;;2077603;28;20082;-73
2023/01/09 00:35:36;;;;;;;35.15;23.65;;;5.90;99.90;;;;;;2071203;28;20468;-72
2023/01/09 00:36:37;;;;;;;36.60;23.50;;;5.90;99.90;;;;;;2069628;28;20105;-72
2023/01/09 00:37:37;;;;;;;36.83;24.92;;;5.90;99.90;;;;;;2079170;28;20097;-72
2023/01/09 00:38:39;;;;;;;38.35;24.95;;;5.80;99.90;;;;;;2079073;28;20325;-72
2023/01/09 00:39:41;;;;;;;39.35;25.33;;;5.80;99.90;;;;;;2081047;28;20108;-73
2023/01/09 00:40:42;;;;;;;36.05;24.17;;;5.80;99.90;;;;;;2067449;28;20112;-73
2023/01/09 00:41:46;;;;;;;37.60;24.95;;;5.80;99.90;;;;;;2067140;28;20022;-73
2023/01/09 00:42:52;;;;;;;36.92;24.23;;;5.80;99.90;;;;;;2077435;28;20034;-72
2023/01/09 00:44:01;;;;;;;39.72;25.45;;;5.80;99.90;;;;;;2077774;28;20030;-72
2023/01/09 00:45:06;;;;;;;36.97;23.63;;;5.80;99.90;;;;;;2075364;28;20026;-71
2023/01/09 00:46:07;;;;;;;37.13;23.60;;;5.70;99.90;;;;;;2075697;28;20480;-71
2023/01/09 00:47:13;;;;;;;37.95;24.67;;;5.80;99.90;;;;;;2076420;28;20040;-73
2023/01/09 00:48:23;;;;;;;39.35;25.60;;;5.80;99.90;;;;;;2073937;28;20033;-71
2023/01/09 00:49:27;;;;;;;38.92;23.90;;;5.80;99.90;;;;;;2077750;28;20184;-72
2023/01/09 00:50:30;;;;;;;39.08;24.77;;;5.70;99.90;;;;;;2076539;28;20071;-72
2023/01/09 00:51:31;;;;;;;37.80;24.65;;;5.70;99.90;;;;;;2081319;28;20021;-72
2023/01/09 00:52:34;;;;;;;38.22;24.73;;;5.70;99.90;;;;;;2074632;28;20037;-72
2023/01/09 00:53:38;;;;;;;35.55;22.92;;;5.80;99.90;;;;;;2078721;28;20029;-71
2023/01/09 00:54:40;;;;;;;41.15;25.80;;;5.70;99.90;;;;;;2078699;28;20036;-71
2023/01/09 00:55:43;;;;;;;41.10;25.55;;;5.70;99.90;;;;;;2060853;28;20472;-71
2023/01/09 00:56:44;;;;;;;42.97;26.38;;;5.70;99.90;;;;;;2062578;28;20123;-71
2023/01/09 00:57:45;;;;;;;40.92;25.30;;;5.70;99.90;;;;;;2083579;28;20048;-73
2023/01/09 00:58:46;;;;;;;40.75;26.02;;;5.70;99.90;;;;;;2076908;28;20423;-73
2023/01/09 00:59:46;;;;;;;39.97;25.00;;;5.70;99.90;;;;;;2077627;28;20030;-71
2023/01/09 01:00:47;;;;;;;41.47;25.75;;;5.70;99.90;;;;;;2075111;28;20037;-72
2023/01/09 01:01:47;;;;;;;39.03;25.70;;;5.70;99.90;;;;;;2080227;28;20033;-72
2023/01/09 01:02:48;;;;;;;41.22;26.05;;;5.70;99.90;;;;;;2078943;28;20583;-72
2023/01/09 01:03:48;;;;;;;38.78;24.92;;;5.70;99.90;;;;;;2076918;28;20515;-72
2023/01/09 01:07:41;;;;;;;40.63;24.77;;;5.70;99.90;;;;;;2068430;28;20030;-71
2023/01/09 01:08:43;;;;;;;41.80;25.85;;;5.70;99.90;;;;;;2069370;28;20025;-71
2023/01/09 01:09:43;;;;;;;41.58;24.83;;;5.70;99.90;;;;;;2069403;28;20058;-72
2023/01/09 01:10:45;;;;;;;41.92;26.58;;;5.70;99.90;;;;;;2068736;28;20745;-71
2023/01/09 01:11:46;;;;;;;42.03;25.77;;;5.70;99.90;;;;;;2070845;28;20025;-71
2023/01/09 01:12:48;;;;;;;40.55;24.70;;;5.70;99.90;;;;;;2078975;28;20400;-72
2023/01/09 01:13:48;;;;;;;38.90;25.38;;;5.70;99.90;;;;;;2078806;28;20510;-72
2023/01/09 01:14:50;;;;;;;40.17;25.80;;;5.70;99.90;;;;;;2079060;28;20021;-71
2023/01/09 01:15:51;;;;;;;42.72;25.70;;;5.70;99.90;;;;;;2080178;28;20407;-72
2023/01/09 01:16:51;;;;;;;39.30;24.95;;;5.70;99.90;;;;;;2068388;28;20025;-72
2023/01/09 01:17:52;;;;;;;36.88;24.08;;;5.70;99.90;;;;;;2068458;28;20034;-71
2023/01/09 01:18:53;;;;;;;40.08;25.00;;;5.70;99.90;;;;;;2060590;28;20029;-71
2023/01/09 01:19:54;;;;;;;42.13;25.27;;;5.70;99.90;;;;;;2068441;28;20426;-71
2023/01/09 01:20:54;;;;;;;40.00;24.80;;;5.70;99.90;;;;;;2071082;28;20117;-72
2023/01/09 01:21:55;;;;;;;39.25;24.75;;;5.60;99.90;;;;;;2078147;28;20505;-71
2023/01/09 01:22:56;;;;;;;44.42;26.92;;;5.60;99.90;;;;;;2074831;28;20465;-71
2023/01/09 01:23:56;;;;;;;41.55;26.80;;;5.60;99.90;;;;;;2073765;28;20318;-71
2023/01/09 01:24:57;;;;;;;43.28;26.77;;;5.70;99.90;;;;;;2079276;28;20036;-72
2023/01/09 01:26:06;;;;;;;42.90;26.35;;;5.70;99.90;;;;;;2077302;28;20062;-72
2023/01/09 01:27:07;;;;;;;42.43;26.67;;;5.70;99.90;;;;;;2077867;28;20024;-71
2023/01/09 01:28:09;;;;;;;42.30;26.45;;;5.60;99.90;;;;;;2077115;28;20350;-72
2023/01/09 01:29:09;;;;;;;41.13;25.45;;;5.60;99.90;;;;;;2069154;28;20033;-71
2023/01/09 01:30:12;;;;;;;40.63;26.27;;;5.60;99.90;;;;;;2068470;28;20033;-72
2023/01/09 01:31:17;;;;;;;38.25;24.42;;;5.70;99.90;;;;;;2070325;28;20042;-72
2023/01/09 01:32:18;;;;;;;41.85;26.23;;;5.70;99.90;;;;;;2071816;28;20041;-72
2023/01/09 01:33:19;;;;;;;39.83;25.52;;;5.60;99.90;;;;;;2079086;28;20030;-72
2023/01/09 01:34:19;;;;;;;42.08;27.00;;;5.70;99.90;;;;;;2078674;28;20284;-72
2023/01/09 01:35:21;;;;;;;39.15;25.02;;;5.60;99.90;;;;;;2075095;28;20120;-72
2023/01/09 01:36:21;;;;;;;42.15;25.42;;;5.70;99.90;;;;;;2083907;28;20396;-72
2023/01/09 01:37:22;;;;;;;39.72;25.50;;;5.60;99.90;;;;;;2077332;28;20100;-72
2023/01/09 01:38:22;;;;;;;41.35;25.75;;;5.70;99.90;;;;;;2077420;28;20056;-73
2023/01/09 01:39:23;;;;;;;40.15;25.30;;;5.70;99.90;;;;;;2077304;28;20100;-72
2023/01/09 01:40:24;;;;;;;43.15;26.45;;;5.60;99.90;;;;;;2077289;28;20109;-72
2023/01/09 01:41:31;;;;;;;41.92;25.77;;;5.70;99.90;;;;;;2077321;28;20032;-72
2023/01/09 01:42:32;;;;;;;39.50;24.08;;;5.70;99.90;;;;;;2070942;28;20156;-72
2023/01/09 01:44:27;;;;;;;37.67;24.33;;;5.70;99.90;;;;;;2069679;28;20117;-72
2023/01/09 01:45:29;;;;;;;39.28;24.65;;;5.70;99.90;;;;;;2048241;28;20035;-72
2023/01/09 01:46:31;;;;;;;39.75;24.83;;;5.70;99.90;;;;;;2045809;28;20033;-72
2023/01/09 01:47:39;;;;;;;38.25;24.27;;;5.70;99.90;;;;;;2059783;28;20044;-72
2023/01/09 01:48:39;;;;;;;40.78;24.27;;;5.70;99.90;;;;;;2076778;28;20101;-71
2023/01/09 01:49:40;;;;;;;39.05;24.33;;;5.80;99.90;;;;;;2077258;28;20507;-72
2023/01/09 01:50:45;;;;;;;38.40;23.02;;;5.80;99.90;;;;;;2079829;28;20025;-72
2023/01/09 01:51:51;;;;;;;37.15;23.55;;;5.70;99.90;;;;;;2071230;28;20040;-71
2023/01/09 01:53:15;;;;;;;37.97;25.38;;;5.80;99.90;;;;;;2073561;28;20017;-71
2023/01/09 01:54:23;;;;;;;38.05;23.90;;;5.80;99.90;;;;;;2065787;28;20041;-71
2023/01/09 01:55:24;;;;;;;37.42;23.20;;;5.80;99.90;;;;;;2069779;28;20434;-72
2023/01/09 01:56:38;;;;;;;38.17;23.90;;;5.80;99.90;;;;;;2064090;28;20034;-71
2023/01/09 01:57:44;;;;;;;35.83;23.08;;;5.80;99.90;;;;;;2062312;28;20018;-71
2023/01/09 01:58:51;;;;;;;38.50;24.30;;;5.80;99.90;;;;;;2075963;28;20279;-72
2023/01/09 01:59:56;;;;;;;37.15;23.35;;;5.80;99.90;;;;;;2067927;28;20038;-72
2023/01/09 02:00:57;;;;;;;36.92;22.98;;;5.80;99.90;;;;;;2066581;28;20196;-71
2023/01/09 02:02:00;;;;;;;37.03;23.80;;;5.80;99.90;;;;;;2078787;28;20024;-71
2023/01/09 02:03:01;;;;;;;37.50;23.83;;;5.80;99.90;;;;;;2062395;28;20202;-72
2023/01/09 02:04:02;;;;;;;37.50;23.58;;;5.80;99.90;;;;;;2073648;28;20045;-72
2023/01/09 02:05:04;;;;;;;37.88;23.40;;;5.80;99.90;;;;;;2081801;28;20036;-71
2023/01/09 02:06:06;;;;;;;37.97;22.58;;;5.80;99.90;;;;;;2079149;28;20032;-71
2023/01/09 02:07:09;;;;;;;38.28;23.23;;;5.80;99.90;;;;;;2065821;28;20041;-73
2023/01/09 02:08:10;;;;;;;36.80;22.92;;;5.80;99.90;;;;;;2067966;28;20124;-71
2023/01/09 02:09:14;;;;;;;36.30;22.42;;;5.80;99.90;;;;;;2068161;28;20064;-72
2023/01/09 02:10:15;;;;;;;36.95;23.85;;;5.80;99.90;;;;;;2076338;28;20037;-72
2023/01/09 02:11:18;;;;;;;38.58;24.23;;;5.90;99.90;;;;;;2079718;28;20037;-72
2023/01/09 02:12:25;;;;;;;37.97;23.40;;;5.90;99.90;;;;;;2068826;28;20041;-73
2023/01/09 02:13:26;;;;;;;38.47;23.65;;;5.80;99.90;;;;;;2067973;28;20595;-72
2023/01/09 02:14:29;;;;;;;36.30;22.42;;;5.80;99.90;;;;;;2078412;28;20025;-71
2023/01/09 02:15:46;;;;;;;35.67;22.13;;;5.90;99.90;;;;;;2076459;28;20036;-72
2023/01/09 02:16:55;;;;;;;32.17;21.38;;;5.90;99.90;;;;;;2078433;28;20021;-71
2023/01/09 02:18:18;;;;;;;34.45;22.25;;;5.90;99.90;;;;;;2074421;28;20448;-73
2023/01/09 02:19:27;;;;;;;34.65;22.40;;;5.90;99.90;;;;;;2075604;28;20057;-71
2023/01/09 02:20:52;;;;;;;36.70;22.42;;;5.90;99.90;;;;;;2073657;28;20277;-72
2023/01/09 02:21:55;;;;;;;35.20;21.73;;;5.90;99.90;;;;;;2077768;28;20083;-71
2023/01/09 02:23:05;;;;;;;36.70;22.73;;;5.90;99.90;;;;;;2077513;28;20429;-71
2023/01/09 02:24:24;;;;;;;35.80;22.48;;;5.90;99.90;;;;;;2077406;28;20091;-72
2023/01/09 02:25:53;;;;;;;36.03;21.85;;;5.90;99.90;;;;;;2073727;28;20175;-72
2023/01/09 02:27:02;;;;;;;34.45;21.80;;;5.90;99.90;;;;;;2078697;28;20518;-72
2023/01/09 02:28:20;;;;;;;35.65;22.02;;;5.90;99.90;;;;;;2065300;28;20037;-72
2023/01/09 02:29:59;;;;;;;35.67;22.33;;;5.90;99.90;;;;;;2069298;28;20268;-72
2023/01/09 02:31:20;;;;;;;35.40;22.60;;;6.00;99.90;;;;;;2042795;28;20387;-72
2023/01/09 02:32:42;;;;;;;35.28;22.15;;;6.00;99.90;;;;;;2044685;28;20030;-72
2023/01/09 02:34:05;;;;;;;35.55;21.52;;;6.00;99.90;;;;;;2072205;28;20037;-72
2023/01/09 02:35:16;;;;;;;34.70;21.90;;;6.00;99.90;;;;;;2074877;28;20491;-72
2023/01/09 02:36:37;;;;;;;34.90;21.98;;;6.00;99.90;;;;;;2077263;28;20040;-72
2023/01/09 02:38:07;;;;;;;36.10;22.48;;;6.00;99.90;;;;;;2064809;28;20120;-72
2023/01/09 02:39:33;;;;;;;36.78;22.35;;;6.00;99.90;;;;;;2055538;28;20037;-73
2023/01/09 02:40:54;;;;;;;36.35;21.98;;;6.00;99.90;;;;;;2074776;28;20140;-72
2023/01/09 02:42:07;;;;;;;35.60;21.55;;;6.00;99.90;;;;;;2077213;28;20029;-73
2023/01/09 02:43:10;;;;;;;35.28;21.73;;;6.00;99.90;;;;;;2065535;28;20091;-73
2023/01/09 02:44:19;;;;;;;31.55;20.80;;;6.00;99.90;;;;;;2066648;28;20038;-72
2023/01/09 02:45:20;;;;;;;32.67;20.92;;;6.00;99.90;;;;;;2060805;28;20042;-73
2023/01/09 02:46:21;;;;;;;33.40;22.65;;;6.00;99.90;;;;;;2068486;28;20504;-72
2023/01/09 02:47:22;;;;;;;34.65;22.63;;;6.00;99.90;;;;;;2061950;28;20080;-73
2023/01/09 02:48:23;;;;;;;36.17;22.88;;;6.00;99.90;;;;;;2072255;28;20739;-73
2023/01/09 02:49:23;;;;;;;36.35;22.33;;;6.00;99.90;;;;;;2067666;28;20086;-73
2023/01/09 02:50:35;;;;;;;35.75;22.67;;;6.00;99.90;;;;;;2071007;28;20052;-73
2023/01/09 02:51:49;;;;;;;34.38;21.50;;;6.00;99.90;;;;;;2069571;28;20061;-73
2023/01/09 02:53:40;;;;;;;34.20;22.20;;;6.00;99.90;;;;;;2072471;28;20037;-78
2023/01/09 02:54:53;;;;;;;36.78;23.02;;;6.10;99.90;;;;;;2040614;28;20330;-79
2023/01/09 02:56:08;;;;;;;35.13;22.30;;;6.00;99.90;;;;;;2075779;28;20129;-79
2023/01/09 02:57:47;;;;;;;37.05;23.05;;;6.00;99.90;;;;;;2080161;28;20064;-78
2023/01/09 02:59:13;;;;;;;33.65;22.10;;;6.00;99.90;;;;;;2033898;29;20035;-72
2023/01/09 03:00:30;;;;;;;37.20;22.33;;;6.00;99.90;;;;;;2039019;28;20035;-72
2023/01/09 03:01:45;;;;;;;35.47;22.45;;;6.00;99.90;;;;;;2068850;28;20037;-78
2023/01/09 03:02:49;;;;;;;37.30;22.75;;;6.00;99.90;;;;;;2066398;28;20037;-78
2023/01/09 03:04:09;;;;;;;32.67;21.05;;;6.00;99.90;;;;;;2070339;28;20057;-78
2023/01/09 03:05:35;;;;;;;37.92;24.00;;;6.00;99.90;;;;;;2079821;28;20032;-78
2023/01/09 03:07:06;;;;;;;37.30;23.30;;;6.00;99.90;;;;;;2079851;28;20508;-78
2023/01/09 03:08:10;;;;;;;;;;;6.00;99.90;;;;;;2065891;28;20057;-77
2023/01/09 03:09:21;;;;;;;39.63;23.00;;;6.00;99.90;;;;;;2069693;28;19913;-77
2023/01/09 03:10:47;;;;;;;33.85;21.98;;;6.00;99.90;;;;;;2069616;28;20034;-79
2023/01/09 03:12:13;;;;;;;36.60;23.75;;;6.00;99.90;;;;;;2070403;28;20028;-79
2023/01/09 03:13:17;;;;;;;37.70;24.40;;;6.00;99.90;;;;;;2068176;28;20144;-79
2023/01/09 03:14:22;;;;;;;38.65;23.75;;;5.90;99.90;;;;;;2063601;28;20105;-78
2023/01/09 03:15:27;;;;;;;38.88;24.35;;;5.90;99.90;;;;;;2069973;28;20148;-79
2023/01/09 03:16:32;;;;;;;34.75;23.23;;;6.00;99.90;;;;;;2077958;28;20116;-80
2023/01/09 03:17:37;;;;;;;34.47;22.95;;;5.90;99.90;;;;;;2078793;28;20240;-79
2023/01/09 03:18:38;;;;;;;36.05;22.70;;;5.90;99.90;;;;;;2078293;28;20453;-80
2023/01/09 03:19:41;;;;;;;37.30;22.90;;;5.90;99.90;;;;;;2083804;28;20040;-79
2023/01/09 03:20:42;;;;;;;38.78;24.67;;;5.90;99.90;;;;;;2076929;28;20017;-79
2023/01/09 03:21:44;;;;;;;40.03;24.45;;;5.90;99.90;;;;;;2066297;28;20029;-79
2023/01/09 03:23:05;;;;;;;39.97;23.95;;;5.90;99.90;;;;;;2075381;28;20034;-79
2023/01/09 03:24:06;;;;;;;41.33;26.15;;;5.80;99.90;;;;;;2072929;28;20139;-78
2023/01/09 03:25:07;;;;;;;38.45;24.73;;;5.80;99.90;;;;;;2079971;28;20044;-78
2023/01/09 03:26:10;;;;;;;38.45;23.77;;;5.80;99.90;;;;;;2068347;28;20543;-79
2023/01/09 03:27:10;;;;;;;36.40;23.85;;;5.80;99.90;;;;;;2080900;28;20029;-78
2023/01/09 03:28:37;;;;;;;37.10;23.50;;;5.80;99.90;;;;;;2085952;28;20123;-78
2023/01/09 03:29:38;;;;;;;41.97;25.10;;;5.90;99.90;;;;;;2077589;28;20044;-77
2023/01/09 03:30:38;;;;;;;38.42;24.75;;;5.80;99.90;;;;;;2080687;28;20029;-78
2023/01/09 03:31:39;;;;;;;42.08;25.58;;;5.80;99.90;;;;;;2078914;28;20490;-78
2023/01/09 03:32:39;;;;;;;42.10;25.80;;;5.80;99.90;;;;;;2079091;28;20037;-79
2023/01/09 03:33:40;;;;;;;40.83;25.45;;;5.70;99.90;;;;;;2078963;28;20030;-78
2023/01/09 03:34:41;;;;;;;43.00;26.30;;;5.70;99.90;;;;;;2075464;28;20022;-79
2023/01/09 03:35:41;;;;;;;43.25;26.92;;;5.70;99.90;;;;;;2072667;28;20018;-79
2023/01/09 03:36:42;;;;;;;41.50;25.58;;;5.70;99.90;;;;;;2066567;28;20034;-79
2023/01/09 03:37:42;;;;;;;40.25;25.15;;;5.70;99.90;;;;;;2079712;28;20028;-79
2023/01/09 03:38:43;;;;;;;37.90;23.73;;;5.70;99.90;;;;;;2077032;28;20025;-78
2023/01/09 03:39:43;;;;;;;39.70;25.52;;;5.70;99.90;;;;;;2078510;28;20444;-78
2023/01/09 03:40:44;;;;;;;39.90;25.05;;;5.70;99.90;;;;;;2083597;28;20428;-78
2023/01/09 03:41:44;;;;;;;39.30;24.52;;;5.70;99.90;;;;;;2078556;28;20091;-78
2023/01/09 03:42:45;;;;;;;41.47;24.67;;;5.70;99.90;;;;;;2078646;28;20362;-76
2023/01/09 03:43:47;;;;;;;41.53;25.30;;;5.70;99.90;;;;;;2069065;28;20033;-77
2023/01/09 03:44:49;;;;;;;40.55;24.75;;;5.70;99.90;;;;;;2068409;28;20115;-78
2023/01/09 03:45:50;;;;;;;42.25;25.15;;;5.70;99.90;;;;;;2072165;28;20030;-78
2023/01/09 03:46:50;;;;;;;39.17;25.13;;;5.70;99.90;;;;;;2079475;28;20033;-77
2023/01/09 03:47:51;;;;;;;43.60;25.92;;;5.70;99.90;;;;;;2070662;28;20021;-77
2023/01/09 03:48:51;;;;;;;39.45;25.02;;;5.70;99.90;;;;;;2062740;28;20030;-76
2023/01/09 03:49:52;;;;;;;42.60;26.40;;;5.70;99.90;;;;;;2064808;28;20099;-78
2023/01/09 03:50:53;;;;;;;47.00;26.83;;;5.70;99.90;;;;;;2069514;28;20026;-77
2023/01/09 03:51:54;;;;;;;43.53;26.90;;;5.60;99.90;;;;;;2077073;28;20028;-77
2023/01/09 03:52:54;;;;;;;43.63;26.17;;;5.60;99.90;;;;;;2075276;28;20496;-78
2023/01/09 03:53:55;;;;;;;40.85;24.55;;;5.60;99.90;;;;;;2069326;28;20037;-78
2023/01/09 03:54:55;;;;;;;39.47;24.80;;;5.70;99.90;;;;;;2072043;28;20049;-80
2023/01/09 03:55:56;;;;;;;40.83;26.13;;;5.60;99.90;;;;;;2070187;28;20022;-78
2023/01/09 03:56:57;;;;;;;44.72;26.98;;;5.60;99.90;;;;;;2074813;28;20033;-79
2023/01/09 03:57:57;;;;;;;42.13;25.67;;;5.70;99.90;;;;;;2070295;28;20184;-78
2023/01/09 03:58:58;;;;;;;39.13;24.95;;;5.60;99.90;;;;;;2070945;28;20105;-78
2023/01/09 03:59:59;;;;;;;40.83;25.58;;;5.60;99.90;;;;;;2070606;28;20341;-78
2023/01/09 04:01:02;;;;;;;38.75;24.17;;;5.60;99.90;;;;;;2076646;28;20032;-77
2023/01/09 04:02:02;;;;;;;40.38;24.30;;;5.60;99.90;;;;;;2070650;28;20479;-79
2023/01/09 04:03:03;;;;;;;36.88;23.45;;;5.70;99.90;;;;;;2076078;28;20277;-78
2023/01/09 04:04:04;;;;;;;38.22;24.35;;;5.70;99.90;;;;;;2077603;28;20041;-78
2023/01/09 04:05:05;;;;;;;37.17;23.30;;;5.70;99.90;;;;;;2077942;28;20048;-77
2023/01/09 04:06:06;;;;;;;36.97;23.63;;;5.70;99.90;;;;;;2078441;28;20048;-75
2023/01/09 04:07:06;;;;;;;35.33;21.85;;;5.70;99.90;;;;;;2079809;28;20043;-77
2023/01/09 04:08:07;;;;;;;36.42;22.75;;;5.70;99.90;;;;;;2072411;28;20031;-79
2023/01/09 04:09:07;;;;;;;34.55;22.00;;;5.80;99.90;;;;;;2068825;28;20068;-78
2023/01/09 04:10:08;;;;;;;38.40;23.33;;;5.70;99.90;;;;;;2069748;28;20041;-79
2023/01/09 04:11:09;;;;;;;37.53;23.35;;;5.80;99.90;;;;;;2060455;28;20034;-79
2023/01/09 04:12:10;;;;;;;35.97;23.20;;;5.70;99.90;;;;;;2062952;28;20131;-77
2023/01/09 04:13:10;;;;;;;34.97;22.80;;;5.80;99.90;;;;;;2069493;28;20500;-78
2023/01/09 04:14:11;;;;;;;40.90;25.90;;;5.80;99.90;;;;;;2075098;28;20029;-78
2023/01/09 04:15:11;;;;;;;36.78;23.98;;;5.70;99.90;;;;;;2080518;28;20028;-78
2023/01/09 04:16:12;;;;;;;40.17;24.98;;;5.80;99.90;;;;;;2076764;28;20025;-77
2023/01/09 04:17:15;;;;;;;39.92;25.40;;;5.70;99.90;;;;;;2072224;28;20401;-78
2023/01/09 04:18:15;;;;;;;36.30;24.00;;;5.80;99.90;;;;;;2066661;28;20437;-78
2023/01/09 04:19:16;;;;;;;38.33;25.17;;;5.70;99.90;;;;;;2068286;28;20121;-78
2023/01/09 04:20:17;;;;;;;38.42;24.35;;;5.80;99.90;;;;;;2070649;28;20029;-77
2023/01/09 04:21:17;;;;;;;38.63;24.63;;;5.70;99.90;;;;;;2071995;28;20029;-78
2023/01/09 04:22:18;;;;;;;36.92;23.67;;;5.80;99.90;;;;;;2079198;28;20052;-79
2023/01/09 04:23:18;;;;;;;38.45;23.35;;;5.70;99.90;;;;;;2069963;28;20025;-78
2023/01/09 04:24:19;;;;;;;36.83;23.63;;;5.70;99.90;;;;;;2069726;28;20115;-78
2023/01/09 04:25:21;;;;;;;37.97;23.65;;;5.70;99.90;;;;;;2069870;28;20453;-78
2023/01/09 04:26:22;;;;;;;36.22;23.23;;;5.70;99.90;;;;;;2061619;28;20027;-76
2023/01/09 04:27:22;;;;;;;37.00;23.25;;;5.70;99.90;;;;;;2064928;28;20086;-78
2023/01/09 04:28:23;;;;;;;38.28;23.98;;;5.70;99.90;;;;;;2066921;28;20109;-78
2023/01/09 04:29:23;;;;;;;40.10;24.52;;;5.80;99.90;;;;;;2071057;28;20038;-78
2023/01/09 04:30:24;;;;;;;37.22;24.20;;;5.70;99.90;;;;;;2077793;28;20022;-78
2023/01/09 04:31:25;;;;;;;38.38;24.50;;;5.70;99.90;;;;;;2081185;28;20123;-79
2023/01/09 04:32:26;;;;;;;34.65;22.30;;;5.70;99.90;;;;;;2069434;28;20515;-78
2023/01/09 04:33:27;;;;;;;38.38;24.05;;;5.70;99.90;;;;;;2067709;28;20048;-78
2023/01/09 04:34:28;;;;;;;39.53;24.27;;;5.70;99.90;;;;;;2067435;28;20030;-79
2023/01/09 04:35:28;;;;;;;38.72;24.42;;;5.80;99.90;;;;;;2069625;28;20038;-77
2023/01/09 04:36:29;;;;;;;37.70;23.60;;;5.80;99.90;;;;;;2078038;28;20353;-78
2023/01/09 04:37:29;;;;;;;36.88;23.17;;;5.80;99.90;;;;;;2072453;28;20516;-78
2023/01/09 04:38:30;;;;;;;35.17;22.27;;;5.80;99.90;;;;;;2059322;28;20085;-78
2023/01/09 04:39:30;;;;;;;37.85;23.45;;;5.80;99.90;;;;;;2076796;28;20031;-79
2023/01/09 04:40:31;;;;;;;39.22;23.88;;;5.80;99.90;;;;;;2077741;28;20033;-78
2023/01/09 04:41:50;;;;;;;36.72;23.02;;;5.80;99.90;;;;;;2058536;28;20030;-77
2023/01/09 04:42:50;;;;;;;35.25;22.23;;;5.80;99.90;;;;;;2065626;28;20485;-78
2023/01/09 04:43:51;;;;;;;35.22;23.05;;;5.80;99.90;;;;;;2061494;28;20034;-78
2023/01/09 04:44:52;;;;;;;36.83;22.77;;;5.80;99.90;;;;;;2057693;28;20674;-77
2023/01/09 04:45:53;;;;;;;34.72;22.38;;;5.80;99.90;;;;;;2069361;28;20544;-78
2023/01/09 04:46:57;;;;;;;34.42;22.20;;;5.80;99.90;;;;;;2064804;28;20061;-78
2023/01/09 04:47:58;;;;;;;34.92;22.63;;;5.80;99.90;;;;;;2072097;28;20125;-78
2023/01/09 04:48:58;;;;;;;36.45;23.35;;;5.80;99.90;;;;;;2070601;28;20121;-78
2023/01/09 04:49:59;;;;;;;35.97;22.13;;;5.80;99.90;;;;;;2079604;28;20036;-78
2023/01/09 04:51:00;;;;;;;33.97;21.60;;;5.80;99.90;;;;;;2079255;28;20025;-77
2023/01/09 04:52:00;;;;;;;37.42;23.83;;;5.90;99.90;;;;;;2078883;28;20495;-77
2023/01/09 04:53:01;;;;;;;36.65;23.63;;;5.90;99.90;;;;;;2071606;28;20568;-78
2023/01/09 04:54:02;;;;;;;33.55;21.05;;;5.80;99.90;;;;;;2062900;28;20589;-78
2023/01/09 04:55:04;;;;;;;35.10;22.30;;;5.80;99.90;;;;;;2059396;28;20043;-79
2023/01/09 04:56:04;;;;;;;36.17;22.25;;;5.80;99.90;;;;;;2069728;28;20281;-76
2023/01/09 04:57:05;;;;;;;36.47;23.35;;;5.90;99.90;;;;;;2081224;28;20041;-78
2023/01/09 04:58:06;;;;;;;36.92;23.40;;;5.90;99.90;;;;;;2078559;28;20033;-78
2023/01/09 04:59:07;;;;;;;34.50;21.88;;;5.90;99.90;;;;;;2065699;28;20037;-78
2023/01/09 05:00:10;;;;;;;36.28;22.55;;;5.90;99.90;;;;;;2067621;28;20029;-78
2023/01/09 05:01:11;;;;;;;31.55;20.92;;;5.80;99.90;;;;;;2083094;28;20387;-78
2023/01/09 05:02:12;;;;;;;35.03;22.58;;;5.90;99.90;;;;;;2083012;28;20041;-76
2023/01/09 05:03:12;;;;;;;35.20;22.83;;;5.90;99.90;;;;;;2078507;28;20952;-78
2023/01/09 05:04:13;;;;;;;34.75;21.92;;;5.90;99.90;;;;;;2078185;28;20033;-77
2023/01/09 05:05:13;;;;;;;35.55;22.98;;;5.90;99.90;;;;;;2061185;28;20023;-76
2023/01/09 05:06:14;;;;;;;32.97;21.27;;;5.90;99.90;;;;;;2064322;28;20072;-78
2023/01/09 05:07:14;;;;;;;29.85;20.63;;;5.90;99.90;;;;;;2066048;28;20053;-78
2023/01/09 05:08:15;;;;;;;34.53;22.10;;;5.90;99.90;;;;;;2065562;28;20029;-78
2023/01/09 05:09:15;;;;;;;34.30;21.55;;;5.90;99.90;;;;;;2069817;28;20501;-77
2023/01/09 05:10:16;;;;;;;32.30;21.48;;;5.90;99.90;;;;;;2067285;28;20038;-78
2023/01/09 05:11:17;;;;;;;35.17;22.58;;;6.00;99.90;;;;;;2071673;28;20048;-78
2023/01/09 05:12:17;;;;;;;33.05;21.38;;;6.00;99.90;;;;;;2069174;28;20029;-78
2023/01/09 05:13:18;;;;;;;33.70;21.23;;;6.00;99.90;;;;;;2078215;28;20044;-79
2023/01/09 05:14:18;;;;;;;53.42;22.60;;;6.00;99.90;;;;;;2079770;28;20511;-74
2023/01/09 05:15:20;;;;;;;42.78;21.25;;;6.10;99.90;;;;;;2072516;28;20029;-74
2023/01/09 05:16:21;;;;;;;57.47;21.95;;;6.10;99.90;;;;;;2077337;28;20074;-77
2023/01/09 05:17:21;;;;;;;54.85;21.88;;;6.10;99.90;;;;;;2081927;28;20025;-79
2023/01/09 05:18:22;;;;;;;42.55;21.05;;;6.10;99.90;;;;;;2070659;28;20107;-79
2023/01/09 05:19:23;;;;;;;44.42;21.05;;;6.20;99.90;;;;;;2072413;28;20033;-78
2023/01/09 05:20:24;;;;;;;48.95;21.45;;;6.20;99.90;;;;;;2061892;28;20025;-78
2023/01/09 05:21:24;;;;;;;37.67;21.55;;;6.30;99.90;;;;;;2060082;28;20493;-82
2023/01/09 05:22:26;;;;;;;32.58;21.33;;;6.30;99.90;;;;;;2069339;28;20174;-80
2023/01/09 05:23:26;;;;;;;34.60;20.92;;;6.30;99.90;;;;;;2076490;28;20538;-79
2023/01/09 05:24:27;;;;;;;40.47;21.73;;;6.30;99.90;;;;;;2066152;28;20038;-78
2023/01/09 05:25:27;;;;;;;32.83;21.02;;;6.30;99.90;;;;;;2067707;28;20034;-79
2023/01/09 05:26:28;;;;;;;34.83;20.85;;;6.30;99.90;;;;;;2069771;28;20229;-80
2023/01/09 05:27:29;;;;;;;38.78;21.58;;;6.30;99.90;;;;;;2070449;28;20026;-79
2023/01/09 05:28:30;;;;;;;38.58;20.55;;;6.30;99.90;;;;;;2080763;28;20049;-78
2023/01/09 05:29:31;;;;;;;33.72;21.15;;;6.30;99.90;;;;;;2075712;28;20234;-79
2023/01/09 05:30:32;;;;;;;35.28;21.30;;;6.30;99.90;;;;;;2068949;28;20065;-81
2023/01/09 05:31:32;;;;;;;34.92;21.00;;;6.30;99.90;;;;;;2064604;28;20050;-81
2023/01/09 05:32:33;;;;;;;34.45;21.20;;;6.30;99.90;;;;;;2071555;28;20294;-81
2023/01/09 05:33:33;;;;;;;35.85;21.70;;;6.30;99.90;;;;;;2063737;28;20057;-79